createdAt,value
2023-02-17T00:01:34.464Z,53.53
2023-02-17T00:04:03.358Z,53.60
2023-02-17T00:06:32.918Z,58.13
2023-02-17T00:09:01.993Z,51.25
2023-02-17T00:11:30.715Z,49.38
2023-02-17T00:14:00.853Z,54.65
2023-02-17T00:16:30.227Z,47.83
2023-02-17T00:19:01.216Z,47.88
2023-02-17T00:21:32.623Z,50.45
2023-02-17T00:24:02.456Z,54.97
2023-02-17T00:26:31.148Z,53.17
2023-02-17T00:29:01.047Z,51.15
2023-02-17T00:31:29.720Z,48.20
2023-02-17T00:33:58.786Z,50.10
2023-02-17T00:36:28.609Z,53.97
2023-02-17T00:38:58.858Z,54.40
2023-02-17T00:41:28.818Z,57.03
2023-02-17T00:43:57.528Z,59.75
2023-02-17T00:46:28.116Z,55.58
2023-02-17T00:48:56.577Z,70.18
2023-02-17T00:51:26.158Z,60.20
2023-02-17T00:53:54.598Z,60.88
2023-02-17T00:56:23.233Z,58.70
2023-02-17T00:58:51.527Z,62.05
2023-02-17T01:01:20.211Z,68.90
2023-02-17T01:03:50.141Z,66.50
2023-02-17T01:06:25.757Z,67.00
2023-02-17T01:08:54.857Z,62.50
2023-02-17T01:11:25.932Z,72.05
2023-02-17T01:13:54.594Z,70.32
2023-02-17T01:16:26.972Z,75.50
2023-02-17T01:18:57.708Z,70.47
2023-02-17T01:21:29.553Z,78.47
2023-02-17T01:24:01.028Z,79.95
2023-02-17T01:26:32.376Z,82.75
2023-02-17T01:29:01.420Z,85.85
2023-02-17T01:31:30.841Z,84.32
2023-02-17T01:34:04.439Z,85.15
2023-02-17T01:36:33.546Z,88.32
2023-02-17T01:39:02.064Z,82.68
2023-02-17T01:41:31.127Z,85.47
2023-02-17T01:44:21.896Z,88.53
2023-02-17T01:46:52.705Z,80.60
2023-02-17T01:49:34.217Z,80.75
2023-02-17T01:52:10.867Z,81.00
2023-02-17T01:54:45.800Z,88.45
2023-02-17T01:57:20.395Z,81.45
2023-02-17T01:59:49.994Z,79.10
2023-02-17T02:02:19.671Z,79.30
2023-02-17T02:04:55.219Z,67.85
2023-02-17T02:07:33.121Z,73.53
2023-02-17T02:10:02.184Z,79.65
2023-02-17T02:12:34.887Z,76.50
2023-02-17T02:15:08.415Z,73.53
2023-02-17T02:17:47.118Z,71.28
2023-02-17T02:20:57.972Z,71.18
2023-02-17T02:24:11.084Z,71.93
2023-02-17T02:27:29.602Z,70.68
2023-02-17T02:30:26.112Z,66.00
2023-02-17T02:33:11.803Z,66.90
2023-02-17T02:35:58.617Z,68.05
2023-02-17T02:38:33.874Z,66.97
2023-02-17T02:43:43.028Z,63.78
2023-02-17T02:46:12.628Z,66.88
2023-02-17T02:48:46.721Z,66.50
2023-02-17T02:51:37.834Z,67.53
2023-02-17T02:54:23.359Z,67.28
2023-02-17T02:57:14.381Z,64.55
2023-02-17T02:59:54.382Z,71.90
2023-02-17T03:02:33.091Z,70.70
2023-02-17T03:05:13.778Z,69.22
2023-02-17T03:07:48.955Z,66.75
2023-02-17T03:10:18.626Z,60.63
2023-02-17T03:12:48.499Z,70.43
2023-02-17T03:15:24.770Z,64.85
2023-02-17T03:17:54.559Z,62.17
2023-02-17T03:20:24.882Z,66.72
2023-02-17T03:22:53.981Z,64.60
2023-02-17T03:25:22.919Z,65.55
2023-02-17T03:27:53.007Z,62.63
2023-02-17T03:30:22.718Z,64.28
2023-02-17T03:32:53.897Z,60.50
2023-02-17T03:35:24.416Z,60.70
2023-02-17T03:37:53.687Z,57.58
2023-02-17T03:40:22.715Z,55.90
2023-02-17T03:42:51.952Z,56.83
2023-02-17T03:45:21.043Z,57.25
2023-02-17T03:47:49.863Z,53.65
2023-02-17T03:50:19.124Z,54.50
2023-02-17T03:52:49.861Z,57.67
2023-02-17T03:55:18.561Z,58.63
2023-02-17T03:57:47.708Z,59.33
2023-02-17T04:00:17.885Z,61.90
2023-02-17T04:02:47.461Z,64.60
2023-02-17T04:05:16.861Z,65.15
2023-02-17T04:07:46.554Z,65.28
2023-02-17T04:10:22.752Z,65.13
2023-02-17T04:12:51.840Z,61.83
2023-02-17T04:15:20.605Z,65.03
2023-02-17T04:17:49.201Z,63.88
2023-02-17T04:20:17.996Z,67.85
2023-02-17T04:22:49.956Z,65.10
2023-02-17T04:25:20.937Z,67.05
2023-02-17T04:27:49.564Z,69.50
2023-02-17T04:30:19.503Z,69.45
2023-02-17T04:32:48.528Z,73.63
2023-02-17T04:35:17.498Z,73.80
2023-02-17T04:37:46.007Z,68.30
2023-02-17T04:40:15.685Z,81.50
2023-02-17T04:42:47.267Z,75.18
2023-02-17T04:45:18.688Z,74.00
2023-02-17T04:47:47.475Z,77.20
2023-02-17T04:50:16.523Z,82.50
2023-02-17T04:52:45.289Z,80.63
2023-02-17T04:55:13.832Z,78.32
2023-02-17T04:57:43.213Z,74.35
2023-02-17T05:00:17.616Z,80.88
2023-02-17T05:02:46.929Z,81.43
2023-02-17T05:05:19.818Z,80.07
2023-02-17T05:07:49.918Z,82.32
2023-02-17T05:10:21.325Z,78.75
2023-02-17T05:12:51.512Z,80.20
2023-02-17T05:15:23.652Z,81.97
2023-02-17T05:17:52.582Z,73.57
2023-02-17T05:20:22.376Z,84.57
2023-02-17T05:22:51.139Z,82.97
2023-02-17T05:25:20.057Z,73.45
2023-02-17T05:27:48.683Z,81.72
2023-02-17T05:30:18.747Z,82.40
2023-02-17T05:32:49.983Z,87.03
2023-02-17T05:35:19.316Z,78.63
2023-02-17T05:37:48.099Z,80.90
2023-02-17T05:40:16.975Z,85.63
2023-02-17T05:42:46.634Z,87.13
2023-02-17T05:45:15.413Z,88.63
2023-02-17T05:47:44.019Z,93.05
2023-02-17T05:50:14.606Z,85.65
2023-02-17T05:52:43.505Z,75.28
2023-02-17T05:55:12.604Z,73.85
2023-02-17T05:57:41.334Z,81.82
2023-02-17T06:00:12.111Z,75.93
2023-02-17T06:02:41.239Z,76.05
2023-02-17T06:05:12.276Z,75.25
2023-02-17T06:07:42.862Z,72.45
2023-02-17T06:10:12.825Z,74.90
2023-02-17T06:12:42.009Z,78.45
2023-02-17T06:15:11.000Z,85.22
2023-02-17T06:17:40.040Z,77.97
2023-02-17T06:20:11.439Z,77.38
2023-02-17T06:22:42.378Z,77.65
2023-02-17T06:25:11.511Z,79.28
2023-02-17T06:27:40.216Z,83.00
2023-02-17T06:30:10.312Z,78.40
2023-02-17T06:32:39.268Z,79.57
2023-02-17T06:35:10.366Z,79.90
2023-02-17T06:37:39.554Z,80.93
2023-02-17T06:40:13.209Z,86.60
2023-02-17T06:42:42.525Z,86.35
2023-02-17T06:45:11.326Z,93.13
2023-02-17T06:47:39.925Z,81.55
2023-02-17T06:50:10.506Z,85.88
2023-02-17T06:52:39.417Z,81.03
2023-02-17T06:55:10.392Z,93.82
2023-02-17T06:57:39.739Z,96.50
2023-02-17T07:00:09.985Z,84.95
2023-02-17T07:02:41.202Z,79.55
2023-02-17T07:05:10.513Z,74.00
2023-02-17T07:07:39.207Z,89.47
2023-02-17T07:10:10.986Z,84.28
2023-02-17T07:12:39.661Z,73.15
2023-02-17T07:15:12.036Z,75.03
2023-02-17T07:17:41.427Z,80.68
2023-02-17T07:20:11.548Z,76.25
2023-02-17T07:22:40.490Z,68.22
2023-02-17T07:25:10.972Z,65.25
2023-02-17T07:27:40.084Z,69.88
2023-02-17T07:30:10.431Z,62.17
2023-02-17T07:32:39.037Z,53.30
2023-02-17T07:35:08.524Z,58.83
2023-02-17T07:37:37.727Z,52.22
2023-02-17T07:40:09.846Z,52.85
2023-02-17T07:42:38.656Z,50.05
2023-02-17T07:45:08.464Z,54.10
2023-02-17T07:47:37.428Z,48.38
2023-02-17T07:50:07.559Z,46.10
2023-02-17T07:52:36.453Z,42.60
2023-02-17T07:55:06.066Z,45.35
2023-02-17T07:57:36.524Z,49.22
2023-02-17T08:00:09.293Z,46.35
2023-02-17T08:02:39.901Z,43.53
2023-02-17T08:05:09.113Z,49.70
2023-02-17T08:07:38.142Z,43.03
2023-02-17T08:10:30.114Z,40.70
2023-02-17T08:13:17.875Z,36.92
2023-02-17T08:15:46.954Z,46.58
2023-02-17T08:18:15.747Z,40.30
2023-02-17T08:20:44.861Z,39.70
2023-02-17T08:23:13.617Z,42.47
2023-02-17T08:25:42.302Z,47.83
2023-02-17T08:28:15.183Z,43.35
2023-02-17T08:30:43.871Z,38.28
2023-02-17T08:33:17.913Z,40.03
2023-02-17T08:35:46.975Z,40.90
2023-02-17T08:38:15.826Z,38.15
2023-02-17T08:40:45.883Z,34.78
2023-02-17T08:43:16.193Z,40.83
2023-02-17T08:45:45.227Z,33.80
2023-02-17T08:48:14.038Z,32.47
2023-02-17T08:50:42.675Z,37.65
2023-02-17T08:53:11.434Z,32.70
2023-02-17T08:55:48.816Z,38.38
2023-02-17T08:58:19.812Z,34.78
2023-02-17T09:00:48.716Z,39.42
2023-02-17T09:03:17.908Z,33.03
2023-02-17T09:05:50.507Z,27.70
2023-02-17T09:08:19.383Z,29.75
2023-02-17T09:10:49.624Z,27.27
2023-02-17T09:13:22.434Z,25.27
2023-02-17T09:15:54.063Z,26.73
2023-02-17T09:18:23.243Z,21.83
2023-02-17T09:20:52.306Z,28.40
2023-02-17T09:23:21.329Z,21.30
2023-02-17T09:25:49.948Z,23.40
2023-02-17T09:28:20.061Z,23.05
2023-02-17T09:30:48.766Z,24.90
2023-02-17T09:33:17.282Z,29.30
2023-02-17T09:35:45.864Z,22.90
2023-02-17T09:38:14.635Z,22.08
2023-02-17T09:40:47.494Z,26.17
2023-02-17T09:43:20.769Z,24.80
2023-02-17T09:45:56.181Z,23.75
2023-02-17T09:51:01.506Z,21.27
2023-02-17T09:53:37.053Z,25.60
2023-02-17T09:56:11.424Z,21.20
2023-02-17T09:58:48.681Z,25.60
2023-02-17T10:01:22.617Z,23.80
2023-02-17T10:03:57.663Z,28.80
2023-02-17T10:06:30.764Z,23.00
2023-02-17T10:09:11.305Z,24.60
2023-02-17T10:11:47.657Z,24.42
2023-02-17T10:14:24.798Z,22.23
2023-02-17T10:17:01.498Z,23.95
2023-02-17T10:19:33.881Z,27.05
2023-02-17T10:22:12.879Z,25.33
2023-02-17T10:24:41.865Z,23.10
2023-02-17T10:27:29.831Z,26.33
2023-02-17T10:30:25.299Z,23.13
2023-02-17T10:33:03.440Z,23.35
2023-02-17T10:35:51.354Z,22.13
2023-02-17T10:38:35.791Z,26.92
2023-02-17T10:41:12.016Z,22.15
2023-02-17T10:43:45.663Z,21.08
2023-02-17T10:46:20.488Z,16.98
2023-02-17T10:48:52.702Z,23.53
2023-02-17T10:51:30.045Z,22.38
2023-02-17T10:54:05.193Z,20.63
2023-02-17T10:56:41.517Z,19.40
2023-02-17T10:59:23.264Z,19.35
2023-02-17T11:01:53.263Z,15.32
2023-02-17T11:04:22.256Z,20.50
2023-02-17T11:06:53.847Z,15.43
2023-02-17T11:09:28.951Z,21.15
2023-02-17T11:12:03.558Z,18.02
2023-02-17T11:14:35.012Z,17.55
2023-02-17T11:17:15.847Z,14.38
2023-02-17T11:19:54.687Z,15.88
2023-02-17T11:22:37.090Z,10.98
2023-02-17T11:25:10.169Z,15.40
2023-02-17T11:27:39.629Z,16.45
2023-02-17T11:30:18.451Z,16.52
2023-02-17T11:32:51.537Z,17.67
2023-02-17T11:35:29.894Z,17.73
2023-02-17T11:38:04.079Z,14.57
2023-02-17T11:40:34.647Z,16.02
2023-02-17T11:43:08.301Z,19.58
2023-02-17T11:45:50.046Z,18.17
2023-02-17T11:49:00.257Z,23.15
2023-02-17T11:51:45.593Z,18.92
2023-02-17T11:54:26.009Z,20.17
2023-02-17T11:57:16.568Z,12.95
2023-02-17T12:00:07.716Z,13.68
2023-02-17T12:02:55.548Z,17.15
2023-02-17T12:05:34.576Z,19.98
2023-02-17T12:08:19.928Z,20.40
2023-02-17T12:11:07.541Z,20.30
2023-02-17T12:13:52.433Z,30.35
2023-02-17T12:16:39.451Z,16.57
2023-02-17T12:19:37.749Z,15.85
2023-02-17T12:22:19.840Z,16.10
2023-02-17T12:25:23.900Z,32.25
2023-02-17T12:28:12.550Z,23.02
2023-02-17T12:31:01.308Z,15.45
2023-02-17T12:36:26.938Z,19.80
2023-02-17T12:39:03.453Z,20.17
2023-02-17T12:41:37.906Z,22.88
2023-02-17T12:44:14.368Z,23.23
2023-02-17T12:46:47.358Z,22.58
2023-02-17T12:49:22.742Z,24.98
2023-02-17T12:54:34.352Z,16.70
2023-02-17T12:57:20.150Z,15.70
2023-02-17T13:02:22.451Z,17.73
2023-02-17T13:04:54.698Z,19.60
2023-02-17T13:07:44.457Z,21.13
2023-02-17T13:10:37.644Z,14.05
2023-02-17T13:13:11.485Z,19.30
2023-02-17T13:15:43.607Z,18.63
2023-02-17T13:18:29.183Z,21.38
2023-02-17T13:21:01.894Z,18.48
2023-02-17T13:23:42.932Z,23.38
2023-02-17T13:26:30.508Z,20.77
2023-02-17T13:29:35.791Z,24.50
2023-02-17T13:32:08.993Z,18.30
2023-02-17T13:34:42.545Z,19.25
2023-02-17T13:37:26.724Z,25.63
2023-02-17T13:39:55.644Z,16.95
2023-02-17T13:42:41.679Z,18.52
2023-02-17T13:45:22.669Z,19.67
2023-02-17T13:47:54.068Z,16.38
2023-02-17T13:50:34.474Z,26.65
2023-02-17T13:53:07.619Z,20.15
2023-02-17T13:55:36.602Z,28.13
2023-02-17T13:58:09.288Z,19.67
2023-02-17T14:00:40.353Z,25.60
2023-02-17T14:03:21.567Z,19.27
2023-02-17T14:05:52.679Z,27.80
2023-02-17T14:08:34.406Z,24.10
2023-02-17T14:11:11.592Z,18.42
2023-02-17T14:13:45.853Z,20.95
2023-02-17T14:16:32.648Z,21.80
2023-02-17T14:19:11.003Z,22.48
2023-02-17T14:21:42.523Z,24.73
2023-02-17T14:24:28.547Z,29.20
2023-02-17T14:27:03.837Z,24.10
2023-02-17T14:29:47.390Z,21.25
2023-02-17T14:32:34.223Z,24.25
2023-02-17T14:35:26.263Z,32.28
2023-02-17T14:37:55.640Z,19.17
2023-02-17T14:40:27.636Z,27.55
2023-02-17T14:42:56.785Z,25.63
2023-02-17T14:45:28.279Z,33.00
2023-02-17T14:48:00.032Z,29.30
2023-02-17T14:50:28.862Z,25.27
2023-02-17T14:52:57.898Z,27.42
2023-02-17T14:55:39.818Z,19.10
2023-02-17T14:58:12.667Z,36.63
2023-02-17T15:00:43.249Z,22.60
2023-02-17T15:03:12.212Z,31.42
2023-02-17T15:05:43.121Z,29.25
2023-02-17T15:08:18.622Z,25.40
2023-02-17T15:10:47.916Z,24.40
2023-02-17T15:13:21.460Z,19.33
2023-02-17T15:15:52.164Z,26.25
2023-02-17T15:18:24.709Z,31.92
2023-02-17T15:20:54.873Z,21.42
2023-02-17T15:23:25.800Z,26.40
2023-02-17T15:25:56.144Z,23.52
2023-02-17T15:28:26.297Z,32.53
2023-02-17T15:30:59.906Z,29.17
2023-02-17T15:33:29.604Z,31.25
2023-02-17T15:36:00.494Z,29.25
2023-02-17T15:38:29.240Z,26.42
2023-02-17T15:40:58.841Z,20.60
2023-02-17T15:46:17.476Z,18.15
2023-02-17T15:48:49.996Z,25.80
2023-02-17T15:51:20.735Z,21.70
2023-02-17T15:53:50.248Z,30.67
2023-02-17T15:56:23.335Z,26.13
2023-02-17T15:58:56.616Z,23.20
2023-02-17T16:01:31.067Z,28.00
2023-02-17T16:04:00.555Z,26.70
2023-02-17T16:06:30.404Z,33.42
2023-02-17T16:09:05.701Z,25.10
2023-02-17T16:11:35.537Z,26.40
2023-02-17T16:14:04.413Z,32.13
2023-02-17T16:16:36.256Z,30.05
2023-02-17T16:19:05.069Z,27.85
2023-02-17T16:21:34.049Z,23.30
2023-02-17T16:24:08.927Z,25.00
2023-02-17T16:26:40.020Z,23.95
2023-02-17T16:29:19.711Z,25.30
2023-02-17T16:31:50.732Z,26.38
2023-02-17T16:34:22.485Z,25.23
2023-02-17T16:36:54.035Z,22.85
2023-02-17T16:39:24.870Z,23.08
2023-02-17T16:41:56.312Z,23.83
2023-02-17T16:44:25.662Z,29.52
2023-02-17T16:46:59.828Z,29.02
2023-02-17T16:49:33.691Z,29.15
2023-02-17T16:52:08.815Z,21.13
2023-02-17T16:54:37.853Z,26.25
2023-02-17T16:57:07.460Z,27.30
2023-02-17T16:59:36.381Z,23.13
2023-02-17T17:02:07.749Z,34.42
2023-02-17T17:04:36.574Z,27.30
2023-02-17T17:07:05.825Z,32.92
2023-02-17T17:09:35.010Z,38.03
2023-02-17T17:12:06.686Z,27.10
2023-02-17T17:14:36.891Z,32.10
2023-02-17T17:17:07.967Z,33.72
2023-02-17T17:19:37.513Z,33.65
2023-02-17T17:22:06.541Z,27.60
2023-02-17T17:24:35.377Z,38.38
2023-02-17T17:27:06.778Z,29.02
2023-02-17T17:29:35.700Z,38.67
2023-02-17T17:32:07.687Z,39.50
2023-02-17T17:34:36.534Z,32.92
2023-02-17T17:37:05.399Z,40.30
2023-02-17T17:39:52.742Z,41.67
2023-02-17T17:42:21.721Z,34.03
2023-02-17T17:44:52.183Z,28.45
2023-02-17T17:47:29.712Z,36.08
2023-02-17T17:49:59.530Z,34.67
2023-02-17T17:52:29.497Z,40.55
2023-02-17T17:54:58.580Z,41.03
2023-02-17T17:57:27.495Z,45.72
2023-02-17T17:59:56.138Z,41.22
2023-02-17T18:02:26.680Z,34.78
2023-02-17T18:04:56.245Z,40.00
2023-02-17T18:07:25.072Z,41.63
2023-02-17T18:09:54.213Z,50.45
2023-02-17T18:12:25.757Z,34.88
2023-02-17T18:14:56.383Z,36.75
2023-02-17T18:17:26.967Z,43.00
2023-02-17T18:19:55.886Z,41.15
2023-02-17T18:22:25.864Z,31.70
2023-02-17T18:24:54.899Z,37.40
2023-02-17T18:27:24.366Z,41.05
2023-02-17T18:29:56.979Z,32.38
2023-02-17T18:32:29.053Z,40.47
2023-02-17T18:34:58.952Z,37.20
2023-02-17T18:37:28.688Z,36.40
2023-02-17T18:39:57.339Z,36.15
2023-02-17T18:42:26.024Z,31.33
2023-02-17T18:44:57.284Z,33.25
2023-02-17T18:47:28.741Z,32.25
2023-02-17T18:49:59.991Z,34.97
2023-02-17T18:52:30.119Z,34.47
2023-02-17T18:54:59.980Z,31.58
2023-02-17T18:57:28.892Z,37.60
2023-02-17T19:00:09.507Z,37.72
2023-02-17T19:02:41.292Z,33.30
2023-02-17T19:05:13.802Z,37.63
2023-02-17T19:07:45.810Z,39.78
2023-02-17T19:10:16.917Z,27.05
2023-02-17T19:12:46.014Z,39.63
2023-02-17T19:15:17.617Z,40.70
2023-02-17T19:17:49.487Z,35.78
2023-02-17T19:20:18.703Z,34.75
2023-02-17T19:22:49.364Z,44.83
2023-02-17T19:25:19.292Z,33.40
2023-02-17T19:27:49.317Z,31.58
2023-02-17T19:30:18.457Z,28.85
2023-02-17T19:32:54.910Z,30.77
2023-02-17T19:35:24.463Z,27.13
2023-02-17T19:37:53.455Z,39.05
2023-02-17T19:40:25.432Z,33.58
2023-02-17T19:42:55.418Z,41.50
2023-02-17T19:45:24.917Z,38.42
2023-02-17T19:47:56.552Z,22.88
2023-02-17T19:50:25.757Z,36.60
2023-02-17T19:52:54.743Z,27.92
2023-02-17T19:55:24.730Z,31.35
2023-02-17T19:57:54.316Z,38.22
2023-02-17T20:00:24.136Z,36.97
2023-02-17T20:02:54.913Z,34.45
2023-02-17T20:05:24.373Z,28.60
2023-02-17T20:07:55.284Z,30.23
2023-02-17T20:10:25.773Z,38.38
2023-02-17T20:12:54.799Z,40.05
2023-02-17T20:15:24.515Z,43.63
2023-02-17T20:17:56.212Z,30.58
2023-02-17T20:20:25.580Z,28.60
2023-02-17T20:22:54.918Z,36.83
2023-02-17T20:25:24.160Z,40.72
2023-02-17T20:27:57.749Z,37.08
2023-02-17T20:30:26.871Z,41.38
2023-02-17T20:32:57.231Z,31.92
2023-02-17T20:35:26.847Z,40.97
2023-02-17T20:37:55.431Z,41.28
2023-02-17T20:40:24.475Z,30.05
2023-02-17T20:42:54.457Z,40.13
2023-02-17T20:45:25.749Z,37.10
2023-02-17T20:47:54.745Z,42.90
2023-02-17T20:50:26.518Z,47.72
2023-02-17T20:52:57.653Z,39.88
2023-02-17T20:55:27.751Z,37.55
2023-02-17T20:58:01.062Z,38.20
2023-02-17T21:00:30.636Z,34.63
2023-02-17T21:02:59.634Z,39.92
2023-02-17T21:05:30.000Z,50.78
2023-02-17T21:08:01.286Z,42.25
2023-02-17T21:10:32.631Z,45.92
2023-02-17T21:13:02.788Z,43.70
2023-02-17T21:15:32.933Z,50.40
2023-02-17T21:18:01.832Z,40.00
2023-02-17T21:20:33.178Z,48.30
2023-02-17T21:23:02.408Z,50.28
2023-02-17T21:25:52.281Z,42.90
2023-02-17T21:28:23.876Z,44.38
2023-02-17T21:30:52.841Z,51.55
2023-02-17T21:33:23.881Z,52.75
2023-02-17T21:35:58.816Z,46.28
2023-02-17T21:38:27.721Z,47.00
2023-02-17T21:40:57.369Z,56.13
2023-02-17T21:43:46.517Z,55.63
2023-02-17T21:46:16.541Z,61.00
2023-02-17T21:48:47.273Z,53.95
2023-02-17T21:54:09.417Z,47.50
2023-02-17T21:56:39.277Z,54.45
2023-02-17T21:59:11.829Z,43.03
2023-02-17T22:01:40.949Z,47.80
2023-02-17T22:04:10.852Z,50.50
2023-02-17T22:06:43.603Z,53.15
2023-02-17T22:09:18.996Z,49.97
2023-02-17T22:11:49.631Z,45.78
2023-02-17T22:14:25.249Z,41.50
2023-02-17T22:16:58.621Z,44.08
2023-02-17T22:19:38.362Z,47.47
2023-02-17T22:22:07.449Z,45.97
2023-02-17T22:24:40.639Z,47.03
2023-02-17T22:27:10.032Z,44.88
2023-02-17T22:29:40.585Z,48.60
2023-02-17T22:32:13.658Z,39.30
2023-02-17T22:34:43.251Z,44.78
2023-02-17T22:37:21.257Z,46.60
2023-02-17T22:39:56.057Z,39.33
2023-02-17T22:42:27.167Z,45.13
2023-02-17T22:44:56.059Z,35.67
2023-02-17T22:47:26.438Z,45.88
2023-02-17T22:49:55.426Z,40.72
2023-02-17T22:52:26.164Z,41.63
2023-02-17T22:54:57.056Z,38.13
2023-02-17T22:57:34.917Z,41.20
2023-02-17T23:00:09.024Z,40.65
2023-02-17T23:02:39.890Z,37.13
2023-02-17T23:05:12.157Z,38.58
2023-02-17T23:07:42.776Z,46.22
2023-02-17T23:10:14.105Z,34.08
2023-02-17T23:12:42.885Z,38.85
2023-02-17T23:15:14.873Z,39.03
2023-02-17T23:18:00.232Z,26.33
2023-02-17T23:20:34.135Z,35.20
2023-02-17T23:23:03.237Z,34.72
2023-02-17T23:25:34.714Z,39.78
2023-02-17T23:28:06.773Z,33.05
2023-02-17T23:30:37.494Z,40.10
2023-02-17T23:33:07.508Z,43.35
2023-02-17T23:35:41.475Z,40.20
2023-02-17T23:38:15.024Z,49.28
2023-02-17T23:40:51.012Z,53.33
2023-02-17T23:43:32.172Z,36.25
2023-02-17T23:46:04.317Z,43.13
2023-02-17T23:48:34.336Z,46.72
2023-02-17T23:51:08.036Z,48.63
2023-02-17T23:53:38.128Z,49.25
2023-02-17T23:56:33.247Z,47.60
2023-02-17T23:59:02.918Z,59.47
